Ride Results

Biloela Burnett Series (28-06-2009)
Ride distance: 80.0 km

Outcomes - Biloela Burnett Series (28-06-2009)
Division No. of Entries Retired / DNE Completed Withdrawn Ineligible V/O Percentage Completed
HW 7 - 5 - - 2 71.43%
MW 15 - 11 - - 4 73.33%
LW 11 - 9 1 - 1 81.82%
JN 4 - 4 - - - 100.00%
Totals 37 - 29 1 - 7 78.38%
Results - Biloela Burnett Series (28-06-2009)
No. Rider Horse Place Time Leg Speeds Total
Km/Hr
H/R bpm
Heavyweight
223 Paul Lengronne Cherox Kariim 1 4:18:00 24.8, 14.9 18.60 31, 41, 51 (Avg:46)
232 Olaf Lochtenberg Matta Mia Ademi 1 4:18:00 23.4, 15.5 18.60 36, 46, 46 (Avg:46)
250 Matthew Gadsby Follydown Gai Emerald 3 6:01:00 14.0, 12.6 13.30 34, 40, 45 (Avg:42)
224 Scott Barker Mystical Cynika 4 6:13:00 14.0, 11.9 12.87 33, 40, 44 (Avg:42)
226 Niels Lochtenberg Matta Mia Arad 5 7:15:00 14.0, 9.1 11.03 39, 47, 45 (Avg:46)
230 David Pembroke Matta Mia Kizil Lame L2 0:00:00 14.0, 43.1 - 28, 40, 50 (Avg:45)
240 Mick Hill Roxborough Ribuck Lame L1 0:00:00 23.1 - 41, 50 (Avg:50)
Middleweight
235 Sk Saeed BinMaktoum Rowallan Cyprus 1 3:39:00 24.8, 19.6 21.92 32, 43, 60 (Avg:51)
245 Angela Head Arinya Park Nazzerin 2 3:44:00 25.4, 18.6 21.43 29, 39, 45 (Avg:42)
238 Robyn Pembroke Mt Eerwah Silver Arafina 3 5:45:00 18.2, 11.3 13.91 30, 37, 37 (Avg:37)
231 Evelyn Cornell Die Kinder Spyder 4 6:04:00 15.7, 11.4 13.19 29, 33, 38 (Avg:35)
252 Olga Bartlett Cingala Royalle 5 6:34:00 14.7, 10.4 12.18 36, 43, 49 (Avg:46)
246 Jayne Fry Rivalyn Shianne 5 6:34:00 13.7, 10.9 12.18 27, 34, 37 (Avg:35)
229 Anne Barlow Tyto Ivan 7 6:57:00 13.7, 9.9 11.51 35, 44, 45 (Avg:44)
227 Helen Toft Bremervale Lucille 8 8:17:00 11.8, 8.1 9.66 37, 39, 43 (Avg:41)
225 Samantha Yates Makahiwi Red Fox 8 8:17:00 11.8, 8.1 9.66 38, 45, 51 (Avg:48)
244 Ben Caslick BertiI Te 10 8:44:00 11.8, 7.5 9.16 38, 39, 41 (Avg:40)
233 Warwick Toft Bremervale Solitaire 10 8:44:00 11.8, 7.5 9.16 33, 41, 47 (Avg:44)
220 Ken Moir Shian Lame L2 0:00:00 19.4, 12.8 - 32, 42, 49 (Avg:45)
237 Rhonda Toon Roxborough Peekarra Lame L2 0:00:00 21.8, 11.9 - 36, 38, 54 (Avg:46)
239 Jackie Gilks Reid River Reflectshine Lame L1 0:00:00 13.3 - 48, 46 (Avg:46)
263 Justin Otto Damanda Kaaluha Lame L1 0:00:00 25.1 - 35, 47 (Avg:47)
Lightweight
222 Christine Christie Reg 1 5:12:00 19.4, 12.8 15.38 46, 41, 45 (Avg:43)
242 Carla Jones Mt Eerwah Anastazia 2 5:45:00 18.2, 11.3 13.91 33, 39, 43 (Avg:41)
236 Karen Hill Safira Myth 3 6:04:00 15.7, 11.4 13.19 34, 42, 46 (Avg:44)
259 Sue Sutcliffe De Sharvell Sharkeem 4 6:09:00 14.0, 12.1 13.01 37, 44, 49 (Avg:46)
248 Nicole Barker Hadji of Damascus 5 6:13:00 14.0, 11.9 12.87 29, 35, 41 (Avg:38)
249 Sarah Byrne Hill-Fry Splash of Gold 6 6:34:00 13.7, 10.9 12.18 40, 41, 46 (Avg:43)
234 Cathy Herve Hilbrae Maxine 7 6:57:00 13.7, 9.9 11.51 34, 38, 41 (Avg:39)
241 Bobbi Lochtenberg Matta Mia Dollar 8 7:15:00 14.0, 9.1 11.03 32, 42, 47 (Avg:44)
247 Leigh Rich Leondon Maritz 9 7:56:00 13.3, 8.1 10.08 31, 34, 43 (Avg:38)
221 Angela Hawks Dakila Pascalle Withdrawn L2 0:00:00 - - 33, 41, 38 (Avg:39)
266 Karen Mendoza Allyndah Expectation Lame L1 0:00:00 18.2 - 33, 43 (Avg:43)
Junior
264 David Anderson Jnr Tobinlee Ishmale 1 3:39:00 25.1, 19.5 21.92 33, 40, 49 (Avg:44)
243 Tarnia Kittel Shaah 2 3:44:00 25.4, 18.6 21.43 32, 41, 42 (Avg:41)
267 Timothy Sutcliffe Talbarear Rapier 3 5:14:00 18.2, 13.2 15.29 35, 43, 50 (Avg:46)
228 Madeline Toft Bremervale Arrogance 4 8:16:00 11.8, 8.2 9.68 38, 36, 42 (Avg:39)